• Join FlightAware (Why Join?)
  • Login
  • US Flag 
02:25PM EDT


 

Airport Tracker/Info


-or-


 

Live Flight TrackerFlight Track Log ✈ AVN10 ✈ 06-Apr-2014 ✈ NVVV / VLI - YSSY / SYD

Flight Track Log - Related Links

Times and Time Zones

All times are in EDT time to prevent confusion due to time zone crossing. See the AVN10 flight status page for this flight to view local times or setup timezone preferences in your user account.

Time Position Orientation Groundspeed Altitude Reporting Facility
EDT Latitude Longitude Course Direction KTS MPH feet Rate Location/Type
04:06PM -17.8648 168.1416 221° Southwest 36,000  Level Aus ATC (Calculated)
04:06PM -17.8648 168.1416 221° Southwest 36,000  Level Aus ATC (Calculated)
04:11PM -18.1105 167.9559 220° Southwest  Level Estimated
04:12PM -18.1790 167.8951 220° Southwest  Level Estimated
04:13PM -18.2474 167.8343 220° Southwest  Level Estimated
04:14PM -18.3159 167.7734 220° Southwest  Level Estimated
04:15PM -18.3843 167.7124 220° Southwest  Level Estimated
04:16PM -18.4484 167.6553 220° Southwest  Level Estimated
04:17PM -18.5124 167.5981 220° Southwest  Level Estimated
04:18PM -18.5765 167.5409 220° Southwest  Level Estimated
04:19PM -18.6405 167.4836 220° Southwest  Level Estimated
04:20PM -18.7045 167.4263 220° Southwest  Level Estimated
04:21PM -18.7685 167.3689 220° Southwest  Level Estimated
04:22PM -18.8325 167.3115 220° Southwest  Level Estimated
04:23PM -18.8964 167.2540 220° Southwest  Level Estimated
04:24PM -18.9773 167.1510 220° Southwest  Level Estimated
04:25PM -19.0413 167.0935 220° Southwest  Level Estimated
04:26PM -19.1052 167.0359 220° Southwest  Level Estimated
04:27PM -19.1691 166.9784 220° Southwest  Level Estimated
04:28PM -19.2330 166.9207 220° Southwest  Level Estimated
04:29PM -19.2969 166.8631 220° Southwest  Level Estimated
04:30PM -19.3608 166.8053 220° Southwest  Level Estimated
04:31PM -19.4246 166.7476 220° Southwest  Level Estimated
04:32PM -19.4885 166.6898 220° Southwest  Level Estimated
04:33PM -19.5523 166.6319 221° Southwest  Level Estimated
04:34PM -19.6161 166.5740 221° Southwest  Level Estimated
04:35PM -19.6799 166.5161 221° Southwest  Level Estimated
04:36PM -19.7436 166.4581 221° Southwest  Level Estimated
04:37PM -19.8074 166.4001 221° Southwest  Level Estimated
04:38PM -19.8711 166.3420 221° Southwest  Level Estimated
04:39PM -19.9348 166.2838 221° Southwest  Level Estimated
04:40PM -19.9985 166.2257 221° Southwest  Level Estimated
04:41PM -20.0621 166.1674 221° Southwest  Level Estimated
04:42PM -20.1258 166.1092 221° Southwest  Level Estimated
04:43PM -20.1894 166.0509 221° Southwest  Level Estimated
04:44PM -20.2530 165.9925 221° Southwest  Level Estimated
04:45PM -20.3166 165.9341 221° Southwest  Level Estimated
04:46PM -20.3802 165.8756 221° Southwest  Level Estimated
04:47PM -20.4437 165.8171 221° Southwest  Level Estimated
04:48PM -20.5073 165.7585 221° Southwest  Level Estimated
04:49PM -20.5708 165.6999 221° Southwest  Level Estimated
04:50PM -20.6343 165.6413 221° Southwest  Level Estimated
04:51PM -20.6977 165.5826 221° Southwest  Level Estimated
04:52PM -20.7612 165.5238 221° Southwest  Level Estimated
04:53PM -20.8246 165.4650 221° Southwest  Level Estimated
04:54PM -20.8880 165.4061 221° Southwest  Level Estimated
04:55PM -20.9514 165.3472 221° Southwest  Level Estimated
04:56PM -21.0148 165.2883 221° Southwest  Level Estimated
04:57PM -21.0781 165.2293 221° Southwest  Level Estimated
04:57PM -21.7494 163.8038 219° Southwest 36,000  Level Aus ATC (Calculated)
04:58PM -21.1415 165.1702 220° Southwest  Level Estimated
04:59PM -21.8657 163.6999 220° Southwest  Level Estimated
05:00PM -21.9303 163.6421 220° Southwest  Level Estimated
05:00PM -21.9746 163.5416 219° Southwest 36,000  Level Aus ATC (Calculated)
05:02PM -22.0909 163.4377 220° Southwest  Level Estimated
05:02PM -22.0989 163.3963 219° Southwest 36,000  Level Aus ATC (Calculated)
05:03PM -22.1646 163.3377 220° Southwest  Level Estimated
05:03PM -22.2173 163.2575 219° Southwest 36,000  Level Aus ATC (Calculated)
05:04PM -22.2302 163.2790 220° Southwest  Level Estimated
05:05PM -22.3062 163.1782 220° Southwest  Level Estimated
05:06PM -22.3712 163.1201 220° Southwest  Level Estimated
05:07PM -22.4362 163.0619 220° Southwest  Level Estimated
05:08PM -22.5011 163.0036 220° Southwest  Level Estimated
05:09PM -22.5661 162.9454 220° Southwest  Level Estimated
05:10PM -22.6310 162.8870 220° Southwest  Level Estimated
05:11PM -22.6959 162.8286 220° Southwest  Level Estimated
05:12PM -22.7607 162.7702 220° Southwest  Level Estimated
05:13PM -22.8256 162.7117 220° Southwest  Level Estimated
05:14PM -22.8904 162.6531 220° Southwest  Level Estimated
05:14PM -23.0788 162.2363 217° Southwest 36,000  Level Aus ATC (Calculated)
05:15PM -22.9552 162.5945 220° Southwest  Level Estimated
05:16PM -23.1615 162.1627 219° Southwest  Level Estimated
05:17PM -23.2268 162.1046 219° Southwest  Level Estimated
05:18PM -23.2920 162.0464 219° Southwest  Level Estimated
05:19PM -23.3572 161.9881 219° Southwest  Level Estimated
05:20PM -23.4224 161.9298 219° Southwest  Level Estimated
05:21PM -23.4876 161.8714 219° Southwest  Level Estimated
05:22PM -23.5527 161.8130 219° Southwest  Level Estimated
05:23PM -23.6179 161.7545 219° Southwest  Level Estimated
05:24PM -23.6830 161.6960 219° Southwest  Level Estimated
05:25PM -23.7481 161.6374 219° Southwest  Level Estimated
05:26PM -23.8131 161.5787 220° Southwest  Level Estimated
05:27PM -23.8781 161.5200 220° Southwest  Level Estimated
05:28PM -23.9432 161.4612 220° Southwest  Level Estimated
05:29PM -24.0082 161.4024 220° Southwest  Level Estimated
05:30PM -24.0731 161.3435 220° Southwest  Level Estimated
05:31PM -24.1381 161.2845 220° Southwest  Level Estimated
05:32PM -24.2030 161.2255 220° Southwest  Level Estimated
05:33PM -24.2679 161.1664 220° Southwest  Level Estimated
05:34PM -24.3328 161.1073 220° Southwest  Level Estimated
05:35PM -24.3976 161.0481 220° Southwest  Level Estimated
05:36PM -24.4625 160.9888 220° Southwest  Level Estimated
05:37PM -24.5273 160.9295 220° Southwest  Level Estimated
05:37PM -25.2261 160.5848 220° Southwest 36,000  Level Aus ATC (Calculated)
05:38PM -25.2898 160.5237 221° Southwest  Level Estimated
05:39PM -25.3535 160.4625 221° Southwest  Level Estimated
05:39PM -25.4479 160.4101 220° Southwest 36,000  Level Aus ATC (Calculated)
05:40PM -25.5331 160.3428 221° Southwest 36,000  Level Aus ATC (Calculated)
05:42PM -25.6488 160.2304 221° Southwest  Level Estimated
05:43PM -25.7112 160.1696 221° Southwest  Level Estimated
05:44PM -25.7737 160.1087 221° Southwest  Level Estimated
05:45PM -25.8361 160.0477 221° Southwest  Level Estimated
05:46PM -25.8985 159.9866 221° Southwest  Level Estimated
05:47PM -25.9609 159.9255 221° Southwest  Level Estimated
05:48PM -26.0232 159.8644 221° Southwest  Level Estimated
05:49PM -26.0856 159.8031 221° Southwest  Level Estimated
05:50PM -26.1479 159.7418 221° Southwest  Level Estimated
05:51PM -26.2101 159.6805 221° Southwest  Level Estimated
05:52PM -26.2724 159.6190 222° Southwest  Level Estimated
05:53PM -26.3346 159.5575 222° Southwest  Level Estimated
05:54PM -26.3968 159.4960 222° Southwest  Level Estimated
05:55PM -26.4590 159.4343 222° Southwest  Level Estimated
05:56PM -26.5211 159.3726 222° Southwest  Level Estimated
05:57PM -26.5832 159.3109 222° Southwest  Level Estimated
05:58PM -26.6453 159.2490 222° Southwest  Level Estimated
05:58PM -27.2867 158.9298 235° Southwest 36,000  Level Aus ATC (Calculated)
05:59PM -26.7074 159.1871 222° Southwest  Level Estimated
06:00PM -27.3504 158.8626 223° Southwest  Level Estimated
06:01PM -27.4110 158.7985 223° Southwest  Level Estimated
06:02PM -27.4716 158.7344 223° Southwest  Level Estimated
06:03PM -27.5322 158.6702 223° Southwest  Level Estimated
06:04PM -27.5927 158.6059 223° Southwest  Level Estimated
06:05PM -27.6532 158.5416 223° Southwest  Level Estimated
06:05PM -27.8662 158.4505 302° West 36,000  Level Aus ATC (Calculated)
06:06PM -27.7137 158.4771 223° Southwest  Level Estimated
06:07PM -27.7741 158.4126 223° Southwest  Level Estimated
06:08PM -28.0484 158.2514 224° Southwest  Level Estimated
06:08PM -27.7296 158.2084 224° Southwest 497 572 36,000  Level Aus ATC (RADAR)
06:08PM -27.7627 158.1788 218° Southwest 420 483 36,000  Level Aus ATC (RADAR)
06:09PM -27.8206 158.1373 212° Southwest 416 479 36,000  Level Aus ATC (RADAR)
06:10PM -27.8862 158.0894 213° Southwest 420 483 36,000  Level Aus ATC (RADAR)
06:10PM -27.9369 158.0534 212° Southwest 423 487 36,000  Level Aus ATC (RADAR)
06:11PM -27.9946 158.0118 213° Southwest 422 486 36,000  Level Aus ATC (RADAR)
06:11PM -28.0609 157.9640 212° Southwest 423 487 36,000  Level Aus ATC (RADAR)
06:12PM -28.1093 157.9282 213° Southwest 420 483 36,000  Level Aus ATC (RADAR)
06:13PM -28.2211 157.8443 213° Southwest 414 476 36,000  Level Aus ATC (RADAR)
06:13PM -28.2465 157.8266 211° Southwest 413 475 36,000  Level Aus ATC (RADAR)
06:14PM -28.3061 157.7849 212° Southwest 422 486 36,000  Level Aus ATC (RADAR)
06:15PM -28.3883 157.7247 213° Southwest 423 487 36,000  Level Aus ATC (RADAR)
06:15PM -28.4465 157.6827 212° Southwest 423 487 36,000  Level Aus ATC (RADAR)
06:16PM -28.4956 157.6468 213° Southwest 422 486 36,000  Level Aus ATC (RADAR)
06:16PM -28.5526 157.6046 213° Southwest 421 484 36,000  Level Aus ATC (RADAR)
06:17PM -28.6104 157.5625 213° Southwest 422 486 36,000  Level Aus ATC (RADAR)
06:18PM -28.7090 157.4904 213° Southwest 422 486 36,000  Level Aus ATC (RADAR)
06:19PM -28.7664 157.4482 213° Southwest 422 486 36,000  Level Aus ATC (RADAR)
06:19PM -28.8161 157.4120 213° Southwest 423 487 36,000  Level Aus ATC (RADAR)
06:20PM -28.8725 157.3701 213° Southwest 419 482 36,000  Level Aus ATC (RADAR)
06:20PM -28.9302 157.3278 213° Southwest 421 484 36,000  Level Aus ATC (RADAR)
06:21PM -28.9874 157.2856 213° Southwest 421 484 36,000  Level Aus ATC (RADAR)
06:21PM -29.0447 157.2433 213° Southwest 420 483 36,000  Level Aus ATC (RADAR)
06:22PM -29.1009 157.2015 213° Southwest 419 482 36,000  Level Aus ATC (RADAR)
06:23PM -29.2155 157.1166 213° Southwest 420 483 36,000  Level Aus ATC (RADAR)
06:24PM -29.2641 157.0803 213° Southwest 420 483 36,000 60 Level Aus ATC (RADAR)
06:24PM -29.3208 157.0381 213° Southwest 418 481 36,100 60 Climbing Aus ATC (RADAR)
06:25PM -29.3774 156.9955 213° Southwest 418 481 36,100  Level Aus ATC (RADAR)
06:25PM -29.4427 156.9472 213° Southwest 419 482 36,100  Level Aus ATC (RADAR)
06:26PM -29.4911 156.9109 213° Southwest 417 480 36,100 -120 Level Aus ATC (RADAR)
06:27PM -29.5557 156.8626 213° Southwest 416 479 36,000  Descending Aus ATC (RADAR)
06:27PM -29.6039 156.8264 213° Southwest 416 479 36,100 60 Climbing Aus ATC (RADAR)
06:28PM -29.6918 156.7601 213° Southwest 414 476 36,100  Level Aus ATC (RADAR)
06:29PM -29.7401 156.7238 213° Southwest 414 476 36,100  Level Aus ATC (RADAR)
06:29PM -29.7965 156.6815 213° Southwest 416 479 36,100  Level Aus ATC (RADAR)
06:30PM -29.8527 156.6395 213° Southwest 415 478 36,100  Level Aus ATC (RADAR)
06:30PM -29.9088 156.5969 213° Southwest 414 476 36,100  Level Aus ATC (RADAR)
06:31PM -29.9567 156.5603 213° Southwest 414 476 36,100  Level Aus ATC (RADAR)
06:31PM -30.0208 156.5116 213° Southwest 415 478 36,100  Level Aus ATC (RADAR)
06:32PM -30.0687 156.4751 213° Southwest 415 478 36,100 780 Level Aus ATC (RADAR)
06:33PM -30.1740 156.3951 213° Southwest 418 481 37,400 1,200 Climbing Aus ATC (RADAR)
06:34PM -30.2226 156.3579 213° Southwest 419 482 38,000 600 Climbing Aus ATC (RADAR)
06:34PM -30.2798 156.3143 213° Southwest 421 484 38,100 60 Climbing Aus ATC (RADAR)
06:35PM -30.3370 156.2704 214° Southwest 423 487 38,100  Level Aus ATC (RADAR)
06:35PM -30.3949 156.2262 213° Southwest 427 491 38,100  Level Aus ATC (RADAR)
06:36PM -30.4523 156.1823 213° Southwest 426 490 38,100  Level Aus ATC (RADAR)
06:36PM -30.5098 156.1381 213° Southwest 426 490 38,100 60 Level Aus ATC (RADAR)
06:37PM -30.5593 156.1001 214° Southwest 427 491 38,200 60 Climbing Aus ATC (RADAR)
06:38PM -30.6585 156.0237 214° Southwest 429 494 38,200 -120 Level Aus ATC (RADAR)
06:38PM -30.6832 156.0047 213° Southwest 429 494 38,100  Descending Aus ATC (RADAR)
06:39PM -30.7329 155.9665 213° Southwest 429 494 38,200 60 Climbing Aus ATC (RADAR)
06:39PM -30.7905 155.9219 214° Southwest 429 494 38,200 -120 Level Aus ATC (RADAR)
06:40PM -30.8469 155.8760 215° Southwest 427 491 38,100  Descending Aus ATC (RADAR)
06:40PM -30.8983 155.8242 221° Southwest 421 484 38,200 60 Climbing Aus ATC (RADAR)
06:41PM -30.9429 155.7808 220° Southwest 420 483 38,200 -120 Level Aus ATC (RADAR)
06:42PM -30.9948 155.7302 220° Southwest 419 482 38,100  Descending Aus ATC (RADAR)
06:42PM -31.0465 155.6795 220° Southwest 417 480 38,200 60 Climbing Aus ATC (RADAR)
06:43PM -31.1349 155.5930 220° Southwest 416 479 38,200  Level Aus ATC (RADAR)
06:43PM -31.1641 155.5643 220° Southwest 415 478 38,200 -120 Level Aus ATC (RADAR)
06:44PM -31.2155 155.5137 220° Southwest 415 478 38,100 -120 Descending Aus ATC (RADAR)
06:45PM -31.2593 155.4704 220° Southwest 414 476 38,100 60 Level Aus ATC (RADAR)
06:45PM -31.3103 155.4201 220° Southwest 413 475 38,200  Climbing Aus ATC (RADAR)
06:46PM -31.3615 155.3697 220° Southwest 414 476 38,100 -240 Descending Aus ATC (RADAR)
06:46PM -31.3981 155.3330 220° Southwest 417 480 38,000  Descending FlightAware ADS-B (YPLB)
06:47PM -31.4642 155.2683 220° Southwest 416 479 38,100  Climbing Aus ATC (RADAR)
06:47PM -31.4726 155.2594 220° Southwest 417 480 38,000 -120 Descending FlightAware ADS-B (YPLB)
06:48PM -31.5574 155.1752 220° Southwest 416 479 38,000  Level FlightAware ADS-B (YPLB)
06:48PM -31.6058 155.1271 220° Southwest 415 478 38,000  Level FlightAware ADS-B (YPLB)
06:49PM -31.6492 155.0838 220° Southwest 414 476 38,000  Level FlightAware ADS-B (YPLB)
06:50PM -31.7092 155.0241 220° Southwest 413 475 38,000 120 Level FlightAware ADS-B (YPLB)
06:50PM -31.7635 154.9705 220° Southwest 410 472 38,200 60 Climbing Aus ATC (RADAR)
06:51PM -31.8144 154.9192 221° Southwest 414 476 38,100 -240 Descending Aus ATC (RADAR)
06:51PM -31.8398 154.8933 220° Southwest 413 475 38,000 -120 Descending FlightAware ADS-B (YPLB)
06:52PM -31.8970 154.8360 220° Southwest 414 476 38,000  Level FlightAware ADS-B (YPLB)
06:52PM -31.9540 154.7789 220° Southwest 414 476 38,000  Level FlightAware ADS-B (YPLB)
06:53PM -31.9976 154.7351 220° Southwest 414 476 38,000 120 Level FlightAware ADS-B (YPLB)
06:54PM -32.0546 154.6785 220° Southwest 414 476 38,200  Climbing Aus ATC (RADAR)
06:54PM -32.0568 154.6755 220° Southwest 413 475 38,000 -180 Descending FlightAware ADS-B (YPLB)
06:54PM -32.1053 154.6270 220° Southwest 414 476 38,100 180 Climbing Aus ATC (RADAR)
06:55PM -32.1488 154.5832 221° Southwest 413 475 38,200 -180 Climbing Aus ATC (RADAR)
06:55PM -32.1612 154.5700 220° Southwest 414 476 38,000 -300 Descending FlightAware ADS-B (YPLB)
06:55PM -32.2174 154.5131 220° Southwest 413 475 38,000  Level FlightAware ADS-B (YPLB)
06:56PM -32.2769 154.4528 220° Southwest 411 473 38,000  Level FlightAware ADS-B (YPLB)
06:57PM -32.3323 154.3961 220° Southwest 410 472 38,000  Level FlightAware ADS-B (YPLB)
06:57PM -32.3749 154.3526 220° Southwest 410 472 38,000  Level FlightAware ADS-B (YPLB)
06:58PM -32.4192 154.3074 220° Southwest 409 471 38,000  Level FlightAware ADS-B (YPLB)
06:58PM -32.4623 154.2635 220° Southwest 410 472 38,000  Level FlightAware ADS-B (YPLB)
06:59PM -32.5014 154.2234 220° Southwest 410 472 38,000  Level FlightAware ADS-B (YPLB)
06:59PM -32.5623 154.1609 220° Southwest 410 472 38,000  Level FlightAware ADS-B (YPLB)
07:00PM -32.6065 154.1156 221° Southwest 413 475 38,000  Level FlightAware ADS-B (YPLB)
07:00PM -32.6484 154.0726 221° Southwest 415 478 38,000  Level FlightAware ADS-B (YPLB)
07:01PM -32.6926 154.0272 221° Southwest 415 478 38,000  Level FlightAware ADS-B (YPLB)
07:01PM -32.7366 153.9816 221° Southwest 416 479 38,000  Level FlightAware ADS-B (YPLB)
07:02PM -32.7800 153.9368 221° Southwest 417 480 38,000  Level FlightAware ADS-B (YPLB)
07:03PM -32.8186 153.8968 220° Southwest 416 479 38,000  Level FlightAware ADS-B (YPLB)
07:03PM -32.8816 153.8320 221° Southwest 417 480 38,000 120 Level FlightAware ADS-B (YPLB)
07:04PM -32.9421 153.7700 221° Southwest 418 481 38,200  Climbing Aus ATC (RADAR)
07:04PM -32.9401 153.7714 221° Southwest 417 480 38,000 -420 Descending FlightAware ADS-B (YPLB)
07:04PM -32.9854 153.7242 221° Southwest 418 481 38,000  Level FlightAware ADS-B (YPLB)
07:05PM -33.0291 153.6788 221° Southwest 420 483 38,000  Level FlightAware ADS-B (YPLB)
07:05PM -33.0823 153.6236 221° Southwest 421 484 38,000  Level FlightAware ADS-B (YRPA)
07:06PM -33.1332 153.5705 221° Southwest 422 486 38,000 120 Level FlightAware ADS-B (YPLB)
07:07PM -33.1835 153.5188 221° Southwest 414 476 38,200  Climbing Aus ATC (RADAR)
07:07PM -33.1912 153.5098 221° Southwest 422 486 38,000  Descending FlightAware ADS-B (YPLB)
07:07PM -33.2347 153.4653 221° Southwest 412 474 38,200  Climbing Aus ATC (RADAR)
07:07PM -33.2470 153.4517 221° Southwest 423 487 38,000 -660 Descending FlightAware ADS-B (YPLB)
07:07PM -33.2606 153.4374 221° Southwest 423 487 38,000  Level FlightAware ADS-B (YPLB)
07:08PM -33.3102 153.3853 221° Southwest 422 486 38,000  Level FlightAware ADS-B (YPLB)
07:08PM -33.3522 153.3412 222° Southwest 423 487 38,000 180 Level FlightAware ADS-B (YRPA)
07:09PM -33.3960 153.2961 222° Southwest 413 475 38,200  Climbing Aus ATC (RADAR)
07:09PM -33.3962 153.2950 221° Southwest 423 487 38,000 -420 Descending FlightAware ADS-B (YPLB)
07:10PM -33.4405 153.2482 221° Southwest 421 484 38,000 180 Level FlightAware ADS-B (YPLB)
07:10PM -33.4908 153.1955 221° Southwest 413 475 38,200  Climbing Aus ATC (RADAR)
07:10PM -33.4976 153.1879 221° Southwest 422 486 38,000 -360 Descending FlightAware ADS-B (YPLB)
07:11PM -33.5430 153.1398 221° Southwest 423 487 38,000 180 Level FlightAware ADS-B (YPLB)
07:11PM -33.5934 153.0873 221° Southwest 414 476 38,200  Climbing Aus ATC (RADAR)
07:11PM -33.5985 153.0813 221° Southwest 424 488 38,000 -480 Descending FlightAware ADS-B (YPLB)
07:12PM -33.6300 153.0481 221° Southwest 423 487 38,000 -720 Level FlightAware ADS-B (YPLB)
07:12PM -33.6730 153.0025 221° Southwest 414 476 37,400 -1,920 Descending FlightAware ADS-B (YPLB)
07:13PM -33.7179 152.9548 221° Southwest 413 475 36,100 -2,880 Descending FlightAware ADS-B (YPLB)
07:13PM -33.7723 152.8970 221° Southwest 423 487 34,100 -3,180 Descending FlightAware ADS-B (YPLB)
07:14PM -33.8191 152.8469 221° Southwest 429 494 32,400 -2,760 Descending FlightAware ADS-B (YPLB)
07:15PM -33.8784 152.7838 221° Southwest 423 487 30,800 -2,400 Descending FlightAware ADS-B (YPLB)
07:15PM -33.9352 152.7234 221° Southwest 419 482 29,300 -2,580 Descending Aus ATC (RADAR)
07:15PM -33.9341 152.7244 221° Southwest 417 480 29,200 -2,640 Descending FlightAware ADS-B (YPLB)
07:16PM -33.9802 152.6749 221° Southwest 411 473 27,900 -2,400 Descending FlightAware ADS-B (YPLB)
07:16PM -34.0206 152.6316 221° Southwest 407 468 26,800 -2,280 Descending FlightAware ADS-B (YPLB)
07:17PM -34.0619 152.5831 233° Southwest 396 456 25,600 -2,040 Descending FlightAware ADS-B (YPLB)
07:17PM -34.0759 152.5452 255° West 371 427 25,100 -1,500 Descending FlightAware ADS-B (YPLB)
07:17PM -34.0772 152.5259 267° West 361 415 24,900 -1,800 Descending FlightAware ADS-B (YPLB)
07:18PM -34.0729 152.4662 275° West 345 397 23,900 -2,100 Descending FlightAware ADS-B (YPLB)
07:18PM -34.0662 152.3944 276° West 337 388 22,500 -2,220 Descending FlightAware ADS-B (YPLB)
07:19PM -34.0605 152.3350 276° West 327 376 21,400 -1,800 Descending FlightAware ADS-B (YPLB)
07:19PM -34.0545 152.2684 276° West 310 357 20,400 -1,860 Descending FlightAware ADS-B (YPLB)
07:20PM -34.0495 152.2178 277° West 306 352 19,300 -2,640 Descending FlightAware ADS-B (YPLB)
07:21PM -34.0421 152.1464 276° West 318 366 17,300 -2,340 Descending FlightAware ADS-B (YPLB)
07:21PM -34.0372 152.0929 276° West 312 359 16,600 -1,500 Descending FlightAware ADS-B (YPLB)
07:22PM -34.0307 152.0257 276° West 307 353 15,600 -1,500 Descending FlightAware ADS-B (YPLB)
07:22PM -34.0249 151.9749 282° West 302 348 14,900 -1,500 Descending FlightAware ADS-B (YPLB)
07:23PM -34.0197 151.9600 295° West 301 346 14,600 -1,500 Descending FlightAware ADS-B (YPLB)
07:23PM -33.9975 151.9173 302° West 299 344 13,900 -1,380 Descending FlightAware ADS-B (YPLB)
07:24PM -33.9741 151.8741 303° West 295 339 13,200 -1,380 Descending FlightAware ADS-B (YPLB)
07:24PM -33.9573 151.8433 303° West 292 336 12,500 -1,260 Descending FlightAware ADS-B (EVDA / DGP)
07:25PM -33.9287 151.7881 297° West 284 327 11,700 -1,560 Descending FlightAware ADS-B (EVDA / DGP)
07:25PM -33.9081 151.7357 294° West 291 335 10,800 -1,560 Descending FlightAware ADS-B (YPLB)
07:26PM -33.8904 151.6904 295° West 290 334 10,200 -1,200 Descending FlightAware ADS-B (YPLB)
07:26PM -33.8797 151.6634 295° West 289 333 9,800 -1,560 Descending FlightAware ADS-B (YPLB)
07:26PM -33.8680 151.6342 295° West 289 333 9,200 -1,500 Descending FlightAware ADS-B (YPLB)
07:27PM -33.8565 151.6052 295° West 289 333 8,800 -660 Descending FlightAware ADS-B (YPLB)
07:27PM -33.8461 151.5792 295° West 287 330 8,800 -1,020 Level FlightAware ADS-B (YPLB)
07:27PM -33.8349 151.5507 294° West 287 330 8,200 -2,040 Descending FlightAware ADS-B (YRAY)
07:27PM -33.8332 151.5465 295° West 293 337 8,100 -1,680 Descending FlightAware ADS-B (YPLB)
07:28PM -33.8223 151.5195 295° West 293 337 7,600 -1,260 Descending FlightAware ADS-B (YPLB)
07:28PM -33.8187 151.5105 294° West 285 328 7,600 -1,200 Level FlightAware ADS-B (YRAY)
07:28PM -33.8112 151.4919 295° West 286 329 7,200 -1,380 Descending FlightAware ADS-B (YPLB)
07:28PM -33.7978 151.4612 303° West 283 326 6,800 -1,320 Descending FlightAware ADS-B (YPLB)
07:29PM -33.7879 151.4484 315° West 285 328 6,500 -1,500 Descending FlightAware ADS-B (YPLB)
07:29PM -33.7796 151.4385 315° West 285 328 6,300 -1,260 Descending FlightAware ADS-B (YPLB)
07:29PM -33.7603 151.4163 316° Northwest 282 325 5,900 -1,080 Descending FlightAware ADS-B (YPLB)
07:29PM -33.7514 151.4062 316° Northwest 280 322 5,800 -900 Descending FlightAware ADS-B (YPLB)
07:29PM -33.7410 151.3946 317° Northwest 278 320 5,600 -840 Descending FlightAware ADS-B (YPLB)
07:30PM -33.7311 151.3838 317° Northwest 276 318 5,500 -780 Descending FlightAware ADS-B (YPLB)
07:30PM -33.7117 151.3624 317° Northwest 270 311 5,200 -780 Descending FlightAware ADS-B (EVDA / DGP)
07:30PM -33.6937 151.3417 316° Northwest 261 300 5,000 -480 Descending FlightAware ADS-B (EVDA / DGP)
07:30PM -33.6870 151.3339 315° West 258 297 5,000 -360 Level FlightAware ADS-B (YPLB)
07:31PM -33.6770 151.3223 315° West 256 295 4,900 -600 Descending FlightAware ADS-B (YPLB)
07:31PM -33.6705 151.3147 315° West 253 291 4,800 -240 Descending FlightAware ADS-B (YPLB)
07:31PM -33.6535 151.2945 315° West 251 289 4,800 -240 Level FlightAware ADS-B (EVDA / DGP)
07:31PM -33.6459 151.2852 314° West 249 287 4,700 -1,020 Descending FlightAware ADS-B (YPLB)
07:31PM -33.6417 151.2801 315° West 250 288 4,600 -1,320 Descending FlightAware ADS-B (YRAY)
07:32PM -33.6282 151.2626 307° West 251 289 4,200 -1,320 Descending FlightAware ADS-B (EVDA / DGP)
07:32PM -33.6232 151.2499 288° West 246 283 4,000 -1,200 Descending FlightAware ADS-B (EVDA / DGP)
07:32PM -33.6215 151.2385 277° West 243 280 3,800 -720 Descending FlightAware ADS-B (EVDA / DGP)
07:32PM -33.6202 151.2257 276° West 241 277 3,800  Level FlightAware ADS-B (YPLB)
07:32PM -33.6192 151.2163 275° West 241 277 3,800  Level FlightAware ADS-B (YRAY)
07:32PM -33.6178 151.2031 277° West 239 275 3,800  Level FlightAware ADS-B (YPLB)
07:32PM -33.6162 151.1881 276° West 239 275 3,800  Level FlightAware ADS-B (YPLB)
07:33PM -33.6162 151.1819 265° West 236 272 3,800  Level FlightAware ADS-B (YRAY)
07:33PM -33.6185 151.1707 251° West 232 267 3,800  Level FlightAware ADS-B (EVDA / DGP)
07:33PM -33.6201 151.1669 240° Southwest 229 264 3,800  Level FlightAware ADS-B (YRAY)
07:33PM -33.6225 151.1626 230° Southwest 227 261 3,800  Level FlightAware ADS-B (EVDA / DGP)
07:33PM -33.6299 151.1546 211° Southwest 219 252 3,800  Level FlightAware ADS-B (EVDA / DGP)
07:33PM -33.6366 151.1510 200° South 209 241 3,800  Level FlightAware ADS-B (YRAY)
07:33PM -33.6514 151.1464 194° South 213 245 3,800  Level FlightAware ADS-B (EVDA / DGP)
07:34PM -33.6683 151.1411 195° South 188 216 3,800  Level FlightAware ADS-B (EVDA / DGP)
07:34PM -33.6750 151.1391 194° South 183 211 3,800 -360 Level FlightAware ADS-B (YPLB)
07:34PM -33.6836 151.1364 194° South 180 207 3,700 -600 Descending FlightAware ADS-B (YPLB)
07:34PM -33.6922 151.1336 195° South 177 204 3,600 -600 Descending FlightAware ADS-B (YPLB)
07:34PM -33.7010 151.1308 195° South 175 201 3,500 -480 Descending FlightAware ADS-B (YPLB)
07:34PM -33.7022 151.1305 188° South 173 199 3,500  Level FlightAware ADS-B (YRPA)
07:35PM -33.7088 151.1302 179° South 172 198 3,500 -540 Level FlightAware ADS-B (EVDA / DGP)
07:35PM -33.7124 151.1304 176° South 171 197 3,400 -600 Descending FlightAware ADS-B (YPLB)
07:35PM -33.7196 151.1308 178° South 170 196 3,300 -300 Descending FlightAware ADS-B (EVDA / DGP)
07:35PM -33.7278 151.1312 176° South 169 194 3,300 -360 Level FlightAware ADS-B (YPLB)
07:35PM -33.7333 151.1319 176° South 169 194 3,200 -420 Descending FlightAware ADS-B (YPLB)
07:35PM -33.7410 151.1335 169° South 170 196 3,200 -540 Level FlightAware ADS-B (YRAY)
07:35PM -33.7461 151.1347 167° South 169 194 3,100 -480 Descending FlightAware ADS-B (YPLB)
07:36PM -33.7613 151.1392 166° South 168 193 3,000 -420 Descending FlightAware ADS-B (YRAY)
07:36PM -33.7686 151.1414 166° South 167 192 2,900 -360 Descending FlightAware ADS-B (YPLB)
07:36PM -33.7750 151.1432 167° South 168 193 2,900 -360 Level FlightAware ADS-B (YPLB)
07:36PM -33.7828 151.1452 167° South 167 192 2,800 -420 Descending FlightAware ADS-B (YPLB)
07:36PM -33.7982 151.1492 168° South 159 183 2,700 -420 Descending FlightAware ADS-B (YRPA)
07:37PM -33.8095 151.1521 168° South 154 177 2,500 -600 Descending FlightAware ADS-B (EVDA / DGP)
07:37PM -33.8203 151.1549 167° South 151 174 2,400 -720 Descending FlightAware ADS-B (YPLB)
07:37PM -33.8330 151.1581 168° South 150 173 2,200 -600 Descending FlightAware ADS-B (YRAY)
07:37PM -33.8342 151.1584 168° South 150 173 2,200 -960 Level FlightAware ADS-B (YPLB)
07:38PM -33.8407 151.1600 167° South 147 169 2,000 -960 Descending FlightAware ADS-B (YPLB)
07:38PM -33.8482 151.1620 167° South 151 174 1,900 -900 Descending FlightAware ADS-B (YPLB)
07:38PM -33.8554 151.1639 167° South 149 171 1,700 -1,020 Descending FlightAware ADS-B (YPLB)
07:38PM -33.8677 151.1671 168° South 145 167 1,400 -840 Descending FlightAware ADS-B (EVDA / DGP)
07:39PM -33.8803 151.1704 168° South 137 158 1,200 -660 Descending FlightAware ADS-B (YRPA)
07:39PM -33.8779 151.1698 167° South 137 158 1,100 -600 Descending FlightAware ADS-B (YPLB)
07:39PM -33.8921 151.1733 167° South 132 152 1,000 -780 Descending FlightAware ADS-B (YPLB)
07:39PM -33.9049 151.1767 168° South 125 144 700 -780 Descending FlightAware ADS-B (EVDA / DGP)
07:40PM -33.9134 151.1789 168° South 126 145 500 -600 Descending FlightAware ADS-B (EVDA / DGP)
07:40PM -33.9219 151.1811 168° South 125 144 400 -660 Descending FlightAware ADS-B (EVDA / DGP)
07:40PM -33.9326 151.1839 166° South 115 132 200 -360 Descending FlightAware ADS-B (YRAY)
07:41PM -33.9497 151.1883 167° South 114 131 100 -240 Descending FlightAware ADS-B (YRAY)